createdAt,value
2022-11-30T00:01:24.439Z,99819.17
2022-11-30T00:03:56.887Z,99822.13
2022-11-30T00:06:25.853Z,99820.73
2022-11-30T00:08:58.026Z,99820.39
2022-11-30T00:11:28.499Z,99819.71
2022-11-30T00:13:56.736Z,99824.06
2022-11-30T00:16:24.873Z,99821.14
2022-11-30T00:18:53.482Z,99823.56
2022-11-30T00:21:21.277Z,99824.61
2022-11-30T00:23:49.488Z,99823.90
2022-11-30T00:26:19.450Z,99822.50
2022-11-30T00:28:47.900Z,99824.41
2022-11-30T00:31:17.855Z,99822.34
2022-11-30T00:33:46.141Z,99823.58
2022-11-30T00:36:19.611Z,99820.84
2022-11-30T00:38:49.191Z,99822.59
2022-11-30T00:41:19.236Z,99826.24
2022-11-30T00:43:47.696Z,99825.56
2022-11-30T00:46:15.823Z,99826.45
2022-11-30T00:48:44.008Z,99826.14
2022-11-30T00:51:12.994Z,99829.10
2022-11-30T00:53:41.984Z,99828.25
2022-11-30T00:56:10.411Z,99827.07
2022-11-30T00:58:38.261Z,99826.73
2022-11-30T01:01:07.467Z,99825.71
2022-11-30T01:03:36.706Z,99828.14
2022-11-30T01:06:06.627Z,99829.02
2022-11-30T01:08:35.135Z,99829.91
2022-11-30T01:11:24.811Z,99830.95
2022-11-30T01:13:53.594Z,99833.05
2022-11-30T01:16:26.582Z,99833.23
2022-11-30T01:18:54.854Z,99833.09
2022-11-30T01:21:25.191Z,99835.33
2022-11-30T01:23:54.270Z,99839.48
2022-11-30T01:26:22.615Z,99838.96
2022-11-30T01:28:52.309Z,99836.55
2022-11-30T01:31:23.556Z,99838.63
2022-11-30T01:33:53.559Z,99839.84
2022-11-30T01:36:23.729Z,99837.73
2022-11-30T01:38:55.613Z,99841.02
2022-11-30T01:41:26.469Z,99841.38
2022-11-30T01:44:06.050Z,99841.02
2022-11-30T01:46:45.928Z,99841.70
2022-11-30T01:49:23.330Z,99842.20
2022-11-30T01:52:20.632Z,99843.41
2022-11-30T01:55:06.028Z,99847.20
2022-11-30T01:57:41.019Z,99845.66
2022-11-30T02:00:12.733Z,99846.85
2022-11-30T02:02:55.357Z,99843.89
2022-11-30T02:05:24.698Z,99841.10
2022-11-30T02:07:53.508Z,99840.73
2022-11-30T02:10:31.636Z,99839.86
2022-11-30T02:13:24.726Z,99840.89
2022-11-30T02:16:06.365Z,99837.94
2022-11-30T02:18:45.655Z,99834.14
2022-11-30T02:21:26.100Z,99840.21
2022-11-30T02:24:09.246Z,99839.16
2022-11-30T02:27:03.617Z,99839.48
2022-11-30T02:29:38.049Z,99842.75
2022-11-30T02:32:35.507Z,99839.08
2022-11-30T02:35:05.840Z,99842.17
2022-11-30T02:37:35.406Z,99841.96
2022-11-30T02:40:09.329Z,99842.96
2022-11-30T02:42:37.206Z,99849.54
2022-11-30T02:45:08.024Z,99851.77
2022-11-30T02:47:49.174Z,99851.40
2022-11-30T02:50:44.296Z,99853.14
2022-11-30T02:53:13.343Z,99852.11
2022-11-30T02:55:41.264Z,99853.31
2022-11-30T02:58:09.157Z,99851.58
2022-11-30T03:00:37.004Z,99851.73
2022-11-30T03:03:04.912Z,99855.04
2022-11-30T03:05:32.855Z,99853.14
2022-11-30T03:08:00.718Z,99855.56
2022-11-30T03:10:28.613Z,99861.29
2022-11-30T03:13:00.438Z,99863.55
2022-11-30T03:15:28.396Z,99870.50
2022-11-30T03:17:56.280Z,99873.30
2022-11-30T03:20:24.166Z,99878.17
2022-11-30T03:22:52.032Z,99877.31
2022-11-30T03:25:19.870Z,99878.19
2022-11-30T03:27:47.734Z,99881.51
2022-11-30T03:30:15.713Z,99885.33
2022-11-30T03:32:43.640Z,99884.48
2022-11-30T03:35:11.561Z,99886.59
2022-11-30T03:37:39.412Z,99886.95
2022-11-30T03:40:08.170Z,99889.05
2022-11-30T03:42:36.002Z,99893.58
2022-11-30T03:45:04.593Z,99889.27
2022-11-30T03:47:32.470Z,99892.23
2022-11-30T03:50:01.330Z,99894.86
2022-11-30T03:52:29.270Z,99897.83
2022-11-30T03:54:57.119Z,99896.83
2022-11-30T03:57:24.994Z,99899.80
2022-11-30T03:59:52.841Z,99902.09
2022-11-30T04:02:20.774Z,99904.34
2022-11-30T04:04:49.085Z,99902.13
2022-11-30T04:07:17.383Z,99908.73
2022-11-30T04:09:45.360Z,99907.86
2022-11-30T04:12:13.191Z,99909.58
2022-11-30T04:14:41.139Z,99907.01
2022-11-30T04:17:09.012Z,99909.64
2022-11-30T04:19:36.822Z,99911.05
2022-11-30T04:22:04.666Z,99911.25
2022-11-30T04:24:32.489Z,99911.96
2022-11-30T04:27:00.355Z,99912.67
2022-11-30T04:29:28.234Z,99913.91
2022-11-30T04:31:56.118Z,99915.30
2022-11-30T04:34:24.006Z,99913.94
2022-11-30T04:36:54.879Z,99916.55
2022-11-30T04:39:26.651Z,99913.08
2022-11-30T04:41:54.579Z,99913.79
2022-11-30T04:44:22.438Z,99915.19
2022-11-30T04:46:50.439Z,99918.66
2022-11-30T04:49:18.308Z,99916.25
2022-11-30T04:51:46.246Z,99920.95
2022-11-30T04:54:14.108Z,99924.62
2022-11-30T04:56:41.954Z,99922.39
2022-11-30T04:59:09.863Z,99927.95
2022-11-30T05:01:37.780Z,99929.34
2022-11-30T05:04:05.683Z,99930.89
2022-11-30T05:06:33.673Z,99932.27
2022-11-30T05:09:01.496Z,99933.99
2022-11-30T05:11:29.312Z,99932.94
2022-11-30T05:13:57.201Z,99931.22
2022-11-30T05:16:25.051Z,99932.80
2022-11-30T05:18:53.064Z,99932.98
2022-11-30T05:21:20.905Z,99932.12
2022-11-30T05:23:48.863Z,99936.30
2022-11-30T05:26:16.741Z,99935.80
2022-11-30T05:28:44.623Z,99936.51
2022-11-30T05:31:12.524Z,99934.42
2022-11-30T05:33:40.484Z,99933.73
2022-11-30T05:36:10.844Z,99939.63
2022-11-30T05:38:39.054Z,99938.41
2022-11-30T05:41:06.967Z,99941.88
2022-11-30T05:43:34.871Z,99945.52
2022-11-30T05:46:04.412Z,99946.55
2022-11-30T05:48:32.592Z,99947.76
2022-11-30T05:51:18.009Z,99948.97
2022-11-30T05:53:46.735Z,99947.23
2022-11-30T05:56:20.876Z,99956.75
2022-11-30T05:58:49.157Z,99958.82
2022-11-30T06:01:19.103Z,99961.05
2022-11-30T06:03:47.010Z,99965.04
2022-11-30T06:06:15.102Z,99966.92
2022-11-30T06:08:44.849Z,99971.41
2022-11-30T06:11:13.537Z,99973.48
2022-11-30T06:13:42.047Z,99973.12
2022-11-30T06:16:10.198Z,99977.09
2022-11-30T06:18:38.662Z,99978.30
2022-11-30T06:21:10.990Z,99979.52
2022-11-30T06:23:38.818Z,99980.55
2022-11-30T06:26:10.221Z,99983.50
2022-11-30T06:28:40.588Z,99986.61
2022-11-30T06:31:11.460Z,99986.27
2022-11-30T06:33:39.347Z,99991.80
2022-11-30T06:36:07.697Z,99993.70
2022-11-30T06:38:35.499Z,99992.83
2022-11-30T06:41:09.316Z,99996.11
2022-11-30T06:43:39.039Z,99996.79
2022-11-30T06:46:07.878Z,99997.16
2022-11-30T06:48:36.412Z,100002.17
2022-11-30T06:51:11.251Z,100003.62
2022-11-30T06:53:39.106Z,99997.20
2022-11-30T06:56:10.721Z,99995.81
2022-11-30T06:58:39.900Z,99999.48
2022-11-30T07:01:10.399Z,100001.57
2022-11-30T07:03:38.974Z,100002.44
2022-11-30T07:06:09.187Z,100004.50
2022-11-30T07:08:37.803Z,100008.11
2022-11-30T07:11:07.710Z,100010.85
2022-11-30T07:13:36.407Z,100012.58
2022-11-30T07:16:06.733Z,100018.48
2022-11-30T07:18:35.366Z,100022.30
2022-11-30T07:21:05.311Z,100022.63
2022-11-30T07:23:56.349Z,100018.13
2022-11-30T07:26:25.884Z,100019.69
2022-11-30T07:28:55.444Z,100021.40
2022-11-30T07:31:27.960Z,100023.30
2022-11-30T07:33:57.311Z,100028.68
2022-11-30T07:36:27.007Z,100026.41
2022-11-30T07:38:54.870Z,100027.60
2022-11-30T07:41:22.683Z,100030.20
2022-11-30T07:43:50.529Z,100033.14
2022-11-30T07:46:19.051Z,100033.84
2022-11-30T07:48:47.547Z,100037.48
2022-11-30T07:51:21.051Z,100034.36
2022-11-30T07:53:50.069Z,100033.65
2022-11-30T07:56:20.262Z,100035.58
2022-11-30T07:58:50.008Z,100034.54
2022-11-30T08:01:21.851Z,100036.61
2022-11-30T08:03:51.284Z,100039.20
2022-11-30T08:06:24.243Z,100037.65
2022-11-30T08:08:53.972Z,100039.04
2022-11-30T08:11:24.778Z,100045.84
2022-11-30T08:13:53.630Z,100049.85
2022-11-30T08:16:24.416Z,100047.25
2022-11-30T08:18:53.228Z,100051.77
2022-11-30T08:21:21.681Z,100050.40
2022-11-30T08:23:53.181Z,100049.38
2022-11-30T08:26:23.549Z,100048.35
2022-11-30T08:28:52.712Z,100048.20
2022-11-30T08:31:29.415Z,100044.92
2022-11-30T08:34:00.481Z,100044.22
2022-11-30T08:36:29.670Z,100049.23
2022-11-30T08:38:59.595Z,100050.45
2022-11-30T08:41:27.565Z,100050.59
2022-11-30T08:43:55.713Z,100051.61
2022-11-30T08:49:22.067Z,100059.22
2022-11-30T08:54:45.000Z,100064.89
2022-11-30T08:57:17.560Z,100065.37
2022-11-30T08:59:46.533Z,100067.75
2022-11-30T09:02:19.685Z,100068.23
2022-11-30T09:04:49.396Z,100069.80
2022-11-30T09:07:17.976Z,100073.82
2022-11-30T09:09:46.063Z,100070.71
2022-11-30T09:12:13.969Z,100070.71
2022-11-30T09:14:42.780Z,100071.59
2022-11-30T09:17:10.761Z,100073.29
2022-11-30T09:19:38.627Z,100072.54
2022-11-30T09:22:06.515Z,100071.12
2022-11-30T09:24:34.476Z,100072.81
2022-11-30T09:27:02.282Z,100069.29
2022-11-30T09:29:30.135Z,100071.87
2022-11-30T09:31:58.037Z,100074.79
2022-11-30T09:34:25.933Z,100070.76
2022-11-30T09:36:53.923Z,100070.00
2022-11-30T09:39:21.783Z,100071.00
2022-11-30T09:42:13.964Z,100074.42
2022-11-30T09:45:03.073Z,100076.42
2022-11-30T09:48:08.604Z,100074.12
2022-11-30T09:50:42.864Z,100074.26
2022-11-30T09:53:33.650Z,100076.82
2022-11-30T09:56:02.995Z,100076.45
2022-11-30T09:58:44.924Z,100080.44
2022-11-30T10:01:22.670Z,100079.95
2022-11-30T10:03:50.806Z,100077.91
2022-11-30T10:06:30.713Z,100072.20
2022-11-30T10:09:17.410Z,100071.77
2022-11-30T10:11:45.641Z,100072.20
2022-11-30T10:14:48.728Z,100070.31
2022-11-30T10:17:54.594Z,100065.78
2022-11-30T10:20:34.240Z,100065.95
2022-11-30T10:23:21.134Z,100064.05
2022-11-30T10:26:30.109Z,100061.42
2022-11-30T10:29:07.018Z,100063.98
2022-11-30T10:31:37.690Z,100067.56
2022-11-30T10:34:28.821Z,100069.23
2022-11-30T10:37:05.820Z,100068.12
2022-11-30T10:39:58.710Z,100068.96
2022-11-30T10:42:40.438Z,100066.35
2022-11-30T10:45:19.823Z,100067.40
2022-11-30T10:48:03.585Z,100070.56
2022-11-30T10:50:31.825Z,100070.41
2022-11-30T10:53:00.816Z,100066.92
2022-11-30T10:55:34.792Z,100069.21
2022-11-30T10:58:10.728Z,100072.14
2022-11-30T11:00:38.677Z,100068.27
2022-11-30T11:03:24.558Z,100072.23
2022-11-30T11:06:22.944Z,100070.64
2022-11-30T11:08:51.366Z,100064.05
2022-11-30T11:11:45.604Z,100066.86
2022-11-30T11:14:24.725Z,100070.38
2022-11-30T11:16:59.149Z,100073.77
2022-11-30T11:19:34.682Z,100073.66
2022-11-30T11:22:06.305Z,100071.14
2022-11-30T11:24:35.499Z,100070.69
2022-11-30T11:27:03.672Z,100068.48
2022-11-30T11:29:34.924Z,100063.84
2022-11-30T11:32:18.742Z,100065.91
2022-11-30T11:34:51.006Z,100071.77
2022-11-30T11:37:24.036Z,100074.02
2022-11-30T11:40:05.706Z,100073.71
2022-11-30T11:42:43.264Z,100074.43
2022-11-30T11:45:22.721Z,100071.48
2022-11-30T11:48:02.058Z,100067.84
2022-11-30T11:53:47.329Z,100071.14
2022-11-30T11:56:25.424Z,100072.00
2022-11-30T11:59:06.032Z,100075.30
2022-11-30T12:01:48.008Z,100078.06
2022-11-30T12:04:36.176Z,100079.10
2022-11-30T12:07:16.722Z,100074.96
2022-11-30T12:10:49.842Z,100078.67
2022-11-30T12:13:16.549Z,100082.69
2022-11-30T12:16:10.977Z,100080.62
2022-11-30T12:19:15.511Z,100084.13
2022-11-30T12:22:14.710Z,100086.20
2022-11-30T12:24:52.617Z,100087.03
2022-11-30T12:27:25.201Z,100085.77
2022-11-30T12:29:56.010Z,100088.88
2022-11-30T12:32:50.967Z,100091.98
2022-11-30T12:35:27.086Z,100093.58
2022-11-30T12:38:13.376Z,100092.73
2022-11-30T12:40:59.257Z,100093.27
2022-11-30T12:43:48.778Z,100090.00
2022-11-30T12:46:55.093Z,100090.04
2022-11-30T12:49:33.499Z,100089.89
2022-11-30T12:52:14.068Z,100086.05
2022-11-30T12:54:57.946Z,100087.40
2022-11-30T12:57:28.447Z,100089.33
2022-11-30T13:00:19.576Z,100091.79
2022-11-30T13:03:08.895Z,100087.61
2022-11-30T13:05:42.879Z,100088.14
2022-11-30T13:08:48.775Z,100091.43
2022-11-30T13:11:21.734Z,100091.95
2022-11-30T13:13:54.257Z,100093.36
2022-11-30T13:16:24.724Z,100091.96
2022-11-30T13:18:59.084Z,100092.14
2022-11-30T13:21:34.975Z,100090.62
2022-11-30T13:24:13.266Z,100092.38
2022-11-30T13:27:08.745Z,100095.50
2022-11-30T13:29:45.696Z,100092.20
2022-11-30T13:32:41.075Z,100090.96
2022-11-30T13:35:29.261Z,100091.98
2022-11-30T13:41:08.959Z,100091.84
2022-11-30T13:43:47.864Z,100089.05
2022-11-30T13:46:20.895Z,100087.84
2022-11-30T13:48:50.154Z,100089.55
2022-11-30T13:51:40.060Z,100091.46
2022-11-30T13:54:46.090Z,100089.88
2022-11-30T13:57:24.789Z,100096.29
2022-11-30T13:59:59.589Z,100097.33
2022-11-30T14:02:33.666Z,100097.69
2022-11-30T14:05:23.352Z,100100.14
2022-11-30T14:08:00.642Z,100101.88
2022-11-30T14:10:39.980Z,100106.58
2022-11-30T14:13:10.770Z,100102.39
2022-11-30T14:15:38.675Z,100101.52
2022-11-30T14:18:09.384Z,100100.14
2022-11-30T14:20:40.807Z,100099.44
2022-11-30T14:23:14.453Z,100101.52
2022-11-30T14:25:48.297Z,100107.27
2022-11-30T14:28:20.339Z,100109.88
2022-11-30T14:30:49.117Z,100115.60
2022-11-30T14:33:50.267Z,100118.90
2022-11-30T14:36:19.352Z,100116.31
2022-11-30T14:38:47.891Z,100113.91
2022-11-30T14:41:29.866Z,100111.33
2022-11-30T14:44:14.330Z,100112.04
2022-11-30T14:46:42.234Z,100112.55
2022-11-30T14:49:17.301Z,100115.86
2022-11-30T14:51:52.567Z,100119.86
2022-11-30T14:54:30.717Z,100119.70
2022-11-30T14:57:07.544Z,100127.70
2022-11-30T14:59:46.410Z,100128.77
2022-11-30T15:02:30.462Z,100126.50
2022-11-30T15:04:59.756Z,100124.91
2022-11-30T15:07:29.799Z,100123.17
2022-11-30T15:10:05.674Z,100120.59
2022-11-30T15:12:35.275Z,100122.33
2022-11-30T15:15:03.199Z,100123.02
2022-11-30T15:17:31.717Z,100125.97
2022-11-30T15:19:59.703Z,100129.27
2022-11-30T15:22:35.044Z,100126.46
2022-11-30T15:25:03.007Z,100127.33
2022-11-30T15:27:31.013Z,100130.28
2022-11-30T15:30:01.010Z,100131.47
2022-11-30T15:32:29.339Z,100132.52
2022-11-30T15:35:00.917Z,100130.94
2022-11-30T15:37:35.404Z,100133.02
2022-11-30T15:40:06.794Z,100135.98
2022-11-30T15:42:40.335Z,100134.63
2022-11-30T15:45:28.532Z,100135.70
2022-11-30T15:47:58.751Z,100135.91
2022-11-30T15:50:26.495Z,100141.86
2022-11-30T15:52:57.043Z,100141.72
2022-11-30T15:55:45.323Z,100141.35
2022-11-30T15:58:46.519Z,100142.93
2022-11-30T16:01:25.042Z,100142.41
2022-11-30T16:03:56.080Z,100144.83
2022-11-30T16:06:33.851Z,100141.02
2022-11-30T16:09:17.334Z,100139.11
2022-11-30T16:11:46.579Z,100136.85
2022-11-30T16:14:16.836Z,100139.11
2022-11-30T16:16:46.081Z,100137.73
2022-11-30T16:19:13.981Z,100142.06
2022-11-30T16:21:42.334Z,100140.67
2022-11-30T16:24:14.599Z,100143.95
2022-11-30T16:26:51.716Z,100143.61
2022-11-30T16:29:20.586Z,100145.33
2022-11-30T16:31:49.271Z,100148.45
2022-11-30T16:34:17.247Z,100152.77
2022-11-30T16:36:45.106Z,100154.67
2022-11-30T16:39:13.378Z,100158.15
2022-11-30T16:41:41.264Z,100159.36
2022-11-30T16:44:13.859Z,100162.32
2022-11-30T16:46:42.080Z,100164.59
2022-11-30T16:49:09.996Z,100165.48
2022-11-30T16:51:38.051Z,100165.84
2022-11-30T16:54:06.025Z,100166.20
2022-11-30T16:56:33.910Z,100162.73
2022-11-30T16:59:01.796Z,100163.61
2022-11-30T17:01:36.243Z,100166.20
2022-11-30T17:04:12.258Z,100166.19
2022-11-30T17:06:40.188Z,100169.48
2022-11-30T17:09:15.854Z,100167.23
2022-11-30T17:11:46.818Z,100166.54
2022-11-30T17:14:14.729Z,100167.05
2022-11-30T17:16:42.892Z,100169.30
2022-11-30T17:19:11.215Z,100172.95
2022-11-30T17:21:39.884Z,100173.64
2022-11-30T17:24:07.975Z,100173.81
2022-11-30T17:26:35.972Z,100177.29
2022-11-30T17:29:04.433Z,100178.67
2022-11-30T17:31:32.601Z,100177.62
2022-11-30T17:34:00.587Z,100176.21
2022-11-30T17:36:29.441Z,100177.95
2022-11-30T17:38:57.693Z,100180.91
2022-11-30T17:41:25.581Z,100179.70
2022-11-30T17:43:53.410Z,100177.45
2022-11-30T17:46:22.482Z,100180.41
2022-11-30T17:48:50.750Z,100181.64
2022-11-30T17:51:18.717Z,100181.46
2022-11-30T17:53:46.614Z,100181.63
2022-11-30T17:56:16.501Z,100186.49
2022-11-30T17:58:45.363Z,100188.76
2022-11-30T18:01:19.140Z,100189.29
2022-11-30T18:03:47.654Z,100191.55
2022-11-30T18:06:16.218Z,100193.98
2022-11-30T18:08:45.088Z,100198.15
2022-11-30T18:11:14.172Z,100195.38
2022-11-30T18:13:42.203Z,100195.20
2022-11-30T18:16:13.475Z,100199.19
2022-11-30T18:18:47.377Z,100197.95
2022-11-30T18:21:20.039Z,100200.91
2022-11-30T18:23:49.218Z,100203.69
2022-11-30T18:26:20.277Z,100204.04
2022-11-30T18:28:58.370Z,100204.55
2022-11-30T18:31:27.968Z,100204.89
2022-11-30T18:33:58.183Z,100206.80
2022-11-30T18:36:26.956Z,100208.70
2022-11-30T18:38:55.122Z,100205.92
2022-11-30T18:41:26.167Z,100212.52
2022-11-30T18:43:54.744Z,100218.06
2022-11-30T18:46:22.765Z,100217.73
2022-11-30T18:48:51.866Z,100213.04
2022-11-30T18:51:27.429Z,100216.16
2022-11-30T18:54:00.894Z,100215.65
2022-11-30T18:56:31.756Z,100217.91
2022-11-30T18:59:02.335Z,100220.67
2022-11-30T19:01:31.307Z,100223.45
2022-11-30T19:04:02.123Z,100223.98
2022-11-30T19:06:32.573Z,100225.36
2022-11-30T19:09:08.502Z,100227.45
2022-11-30T19:11:37.844Z,100225.36
2022-11-30T19:14:06.355Z,100224.67
2022-11-30T19:16:35.074Z,100230.56
2022-11-30T19:19:06.308Z,100231.95
2022-11-30T19:21:34.754Z,100230.21
2022-11-30T19:24:03.056Z,100230.73
2022-11-30T19:26:30.965Z,100234.04
2022-11-30T19:28:59.184Z,100232.98
2022-11-30T19:31:27.649Z,100232.46
2022-11-30T19:33:56.540Z,100226.39
2022-11-30T19:36:27.511Z,100225.52
2022-11-30T19:38:58.229Z,100225.17
2022-11-30T19:41:27.363Z,100227.42
2022-11-30T19:44:02.748Z,100228.81
2022-11-30T19:46:33.317Z,100231.77
2022-11-30T19:49:01.824Z,100234.02
2022-11-30T19:51:31.348Z,100228.12
2022-11-30T19:53:59.389Z,100230.03
2022-11-30T19:56:29.610Z,100230.73
2022-11-30T19:59:04.023Z,100230.75
2022-11-30T20:01:34.257Z,100232.13
2022-11-30T20:04:03.789Z,100234.39
2022-11-30T20:06:37.108Z,100236.48
2022-11-30T20:09:07.245Z,100237.67
2022-11-30T20:11:35.594Z,100240.63
2022-11-30T20:14:03.799Z,100238.89
2022-11-30T20:16:31.989Z,100240.10
2022-11-30T20:19:01.863Z,100242.89
2022-11-30T20:21:33.310Z,100245.13
2022-11-30T20:24:05.468Z,100245.65
2022-11-30T20:26:36.787Z,100247.56
2022-11-30T20:29:07.145Z,100248.95
2022-11-30T20:31:36.875Z,100251.89
2022-11-30T20:34:05.397Z,100253.96
2022-11-30T20:36:33.784Z,100259.35
2022-11-30T20:39:03.385Z,100260.55
2022-11-30T20:41:31.247Z,100260.39
2022-11-30T20:43:59.533Z,100261.44
2022-11-30T20:46:35.690Z,100260.39
2022-11-30T20:49:11.777Z,100259.70
2022-11-30T20:51:39.647Z,100256.23
2022-11-30T20:54:07.838Z,100254.15
2022-11-30T20:56:37.847Z,100251.38
2022-11-30T20:59:09.017Z,100247.39
2022-11-30T21:01:36.901Z,100249.13
2022-11-30T21:04:04.859Z,100250.50
2022-11-30T21:06:32.943Z,100254.33
2022-11-30T21:09:01.214Z,100258.66
2022-11-30T21:11:30.186Z,100260.90
2022-11-30T21:13:58.188Z,100257.42
2022-11-30T21:16:29.485Z,100259.52
2022-11-30T21:18:59.544Z,100257.79
2022-11-30T21:21:33.742Z,100257.79
2022-11-30T21:24:05.332Z,100259.35
2022-11-30T21:26:36.570Z,100255.71
2022-11-30T21:29:11.444Z,100251.03
2022-11-30T21:31:39.569Z,100246.88
2022-11-30T21:34:07.793Z,100248.77
2022-11-30T21:36:35.932Z,100245.65
2022-11-30T21:39:07.088Z,100247.02
2022-11-30T21:41:37.350Z,100245.12
2022-11-30T21:44:07.222Z,100245.12
2022-11-30T21:46:35.302Z,100249.46
2022-11-30T21:49:03.572Z,100250.84
2022-11-30T21:51:32.727Z,100250.16
2022-11-30T21:54:04.173Z,100254.50
2022-11-30T21:56:37.333Z,100253.45
2022-11-30T21:59:07.210Z,100257.45
2022-11-30T22:01:38.284Z,100258.49
2022-11-30T22:04:08.611Z,100256.06
2022-11-30T22:06:38.397Z,100257.45
2022-11-30T22:09:12.950Z,100256.58
2022-11-30T22:11:42.571Z,100256.75
2022-11-30T22:14:12.829Z,100259.01
2022-11-30T22:16:40.741Z,100256.92
2022-11-30T22:19:08.743Z,100258.66
2022-11-30T22:21:36.798Z,100260.92
2022-11-30T22:24:07.500Z,100263.87
2022-11-30T22:26:38.197Z,100267.85
2022-11-30T22:29:08.556Z,100264.73
2022-11-30T22:31:40.294Z,100262.82
2022-11-30T22:34:08.591Z,100258.31
2022-11-30T22:36:38.779Z,100259.02
2022-11-30T22:39:13.081Z,100254.15
2022-11-30T22:41:42.495Z,100257.45
2022-11-30T22:44:13.157Z,100255.02
2022-11-30T22:46:41.658Z,100254.15
2022-11-30T22:49:20.227Z,100250.85
2022-11-30T22:51:49.934Z,100251.90
2022-11-30T22:54:18.749Z,100247.39
2022-11-30T22:56:47.016Z,100246.17
2022-11-30T22:59:15.931Z,100242.88
2022-11-30T23:01:46.837Z,100244.62
2022-11-30T23:04:17.197Z,100244.62
2022-11-30T23:06:47.355Z,100248.25
2022-11-30T23:09:18.606Z,100247.55
2022-11-30T23:11:47.442Z,100248.08
2022-11-30T23:14:16.572Z,100247.73
2022-11-30T23:16:45.813Z,100247.56
2022-11-30T23:19:14.468Z,100246.88
2022-11-30T23:21:44.977Z,100246.36
2022-11-30T23:24:15.932Z,100241.84
2022-11-30T23:26:44.581Z,100239.58
2022-11-30T23:29:14.747Z,100239.42
2022-11-30T23:31:45.266Z,100240.98
2022-11-30T23:34:16.964Z,100237.69
2022-11-30T23:36:45.301Z,100233.52
2022-11-30T23:39:16.094Z,100234.56
2022-11-30T23:41:44.568Z,100236.98
2022-11-30T23:44:12.693Z,100235.95
2022-11-30T23:46:41.356Z,100231.96
2022-11-30T23:49:09.552Z,100231.95
2022-11-30T23:51:37.492Z,100235.42
2022-11-30T23:54:05.514Z,100234.39
2022-11-30T23:56:33.441Z,100227.63
2022-11-30T23:59:01.295Z,100225.54
